Home > Products > Valid Products > TAF

000
FTUS44 KSHV 101720
TAFMLU
TAF
KMLU 101720Z 1018/1118 VRB04KT P6SM SKC
     FM102000 22008KT P6SM SKC
     FM110000 20006KT P6SM SKC
     FM111500 26008KT P6SM FEW300=



000
FTUS44 KSHV 101720
TAFTXK
TAF
KTXK 101720Z 1018/1118 23006KT P6SM SKC
     FM102000 22010KT P6SM SKC
     FM110000 20006KT P6SM SKC
     FM110300 21009KT P6SM SKC
     FM111500 26007KT P6SM SCT300=



000
FTUS44 KSHV 101720
TAFSHV
TAF
KSHV 101720Z 1018/1118 VRB05KT P6SM SKC
     FM102000 21009KT P6SM SKC
     FM111500 25010KT P6SM FEW300=



000
FTUS44 KSHV 101720
TAFGGG
TAF
KGGG 101720Z 1018/1118 22008KT P6SM SKC
     FM102000 22012KT P6SM SKC
     FM110000 20011KT P6SM SKC
     FM111500 25009KT P6SM SCT300=



000
FTUS44 KSHV 101720
TAFTYR
TAF
KTYR 101720Z 1018/1118 22011KT P6SM SKC
     FM110000 20011KT P6SM SKC
     FM111500 25009KT P6SM SCT300=



000
FTUS44 KSHV 101720
TAFLFK
TAF
KLFK 101720Z 1018/1118 VRB04KT P6SM SKC
     FM102000 21008KT P6SM SKC
     FM110000 19005KT P6SM SKC
     FM111500 23006KT P6SM SKC=



000
FTUS44 KSHV 101720
TAFELD
TAF
KELD 101720Z 1018/1118 VRB04KT P6SM SKC
     FM102000 21008KT P6SM SKC
     FM110000 19004KT P6SM SKC
     FM111500 26006KT P6SM SCT300=



000
FTUS44 KSHV 101120
TAFTYR
TAF
KTYR 101120Z 1012/1112 27005KT P6SM SKC
     FM101600 21010KT P6SM SKC
     FM101900 21010G16KT P6SM SKC
     FM110000 20013KT P6SM SKC=



000
FTUS44 KSHV 101120
TAFLFK
TAF
KLFK 101120Z 1012/1112 29003KT P6SM SKC
     FM101500 19007KT P6SM SKC
     FM102100 21008KT P6SM SKC
     FM110000 18005KT P6SM SKC=



000
FTUS44 KSHV 101120
TAFMLU
TAF
KMLU 101120Z 1012/1112 32003KT P6SM SKC
     FM101600 28004KT P6SM SKC
     FM102100 22008KT P6SM SKC
     FM110000 19006KT P6SM SKC=



000
FTUS44 KSHV 101120
TAFSHV
TAF
KSHV 101120Z 1012/1112 00000KT P6SM SKC
     FM101600 21007KT P6SM SKC
     FM110400 21009KT P6SM SKC=



000
FTUS44 KSHV 101120
TAFELD
TAF
KELD 101120Z 1012/1112 33005KT P6SM SKC
     FM101600 25007KT P6SM SKC
     FM102000 22008G15KT P6SM SKC
     FM110000 19003KT P6SM SKC=



000
FTUS44 KSHV 101120
TAFTXK
TAF
KTXK 101120Z 1012/1112 00000KT P6SM SKC
     FM101600 21008KT P6SM SKC
     FM102000 22011G17KT P6SM SKC
     FM110000 19007KT P6SM SKC
     FM110700 22009KT P6SM SKC=



000
FTUS44 KSHV 101120
TAFGGG
TAF
KGGG 101120Z 1012/1112 00000KT P6SM SKC
     FM101600 19007KT P6SM SKC
     FM102100 22014KT P6SM SKC
     FM110000 19009KT P6SM SKC=



000
FTUS44 KSHV 100540
TAFSHV
TAF
KSHV 100540Z 1006/1106 33007KT P6SM FEW250
     FM101200 VRB03KT P6SM SKC
     FM101600 21007KT P6SM SKC=



000
FTUS44 KSHV 100540
TAFELD
TAF
KELD 100540Z 1006/1106 31003KT P6SM SKC
     FM101600 22007KT P6SM SKC=



000
FTUS44 KSHV 100540
TAFMLU
TAF
KMLU 100540Z 1006/1106 34008KT P6SM FEW250
     FM100900 33003KT P6SM SKC
     FM101600 VRB03KT P6SM SKC
     FM102100 20008KT P6SM SKC=



000
FTUS44 KSHV 100540
TAFTYR
TAF
KTYR 100540Z 1006/1106 36008KT P6SM FEW250
     FM100900 VRB03KT P6SM SKC
     FM101600 21010KT P6SM SKC=



000
FTUS44 KSHV 100540
TAFLFK
TAF
KLFK 100540Z 1006/1106 VRB03KT P6SM FEW250
     FM101500 19007KT P6SM SKC=



000
FTUS44 KSHV 100540
TAFGGG
TAF
KGGG 100540Z 1006/1106 33006KT P6SM FEW250
     FM100900 VRB03KT P6SM SKC
     FM101600 21010KT P6SM SKC=



000
FTUS44 KSHV 100540
TAFTXK
TAF
KTXK 100540Z 1006/1106 32008KT P6SM FEW250
     FM100900 VRB03KT P6SM SKC
     FM101600 21008KT P6SM SKC=



000
FTUS44 KSHV 100540
TAFTXK
TAF
KTXK 100540Z 1006/1106 32008KT P6SM FEW250
     FM100900 VRB03KT P6SM SKC
     FM101600 21008KT P6SM SKC=



000
FTUS44 KSHV 100540
TAFTYR
TAF
KTYR 100540Z 1006/1106 36008KT P6SM FEW250
     FM100900 VRB03KT P6SM SKC
     FM101600 21010KT P6SM SKC=



000
FTUS44 KSHV 100540
TAFELD
TAF
KELD 100540Z 1006/1106 31003KT P6SM SKC
     FM101600 22007KT P6SM SKC=



000
FTUS44 KSHV 100540
TAFMLU
TAF
KMLU 100540Z 1006/1106 34008KT P6SM FEW250
     FM100900 33003KT P6SM SKC
     FM101600 VRB03KT P6SM SKC
     FM102100 20008KT P6SM SKC=



000
FTUS44 KSHV 100540
TAFLFK
TAF
KLFK 100540Z 1006/1106 VRB03KT P6SM FEW250
     FM101500 19007KT P6SM SKC=



000
FTUS44 KSHV 100540
TAFSHV
TAF
KSHV 100540Z 1006/1106 33007KT P6SM FEW250
     FM101200 VRB03KT P6SM SKC
     FM101600 21007KT P6SM SKC=



000
FTUS44 KSHV 100540
TAFGGG
TAF
KGGG 100540Z 1006/1106 33006KT P6SM FEW250
     FM100900 VRB03KT P6SM SKC
     FM101600 21010KT P6SM SKC=



000
FTUS44 KSHV 092340
TAFTXK
TAF
KTXK 092340Z 1000/1024 32012G18KT P6SM FEW250
     FM100200 31005KT P6SM SKC
     FM100900 VRB03KT P6SM SKC
     FM101600 20007KT P6SM SKC=



000
FTUS44 KSHV 092340
TAFMLU
TAF
KMLU 092340Z 1000/1024 31012G18KT P6SM FEW250
     FM100200 32005KT P6SM SKC
     FM101200 VRB03KT P6SM SKC
     FM101800 22007KT P6SM SKC=



000
FTUS44 KSHV 092340
TAFSHV
TAF
KSHV 092340Z 1000/1024 32012G18KT P6SM SKC
     FM100200 33006KT P6SM SKC
     FM101200 VRB03KT P6SM SKC
     FM101600 19007KT P6SM SKC=



000
FTUS44 KSHV 092340
TAFELD
TAF
KELD 092340Z 1000/1024 30012G18KT P6SM FEW250
     FM100200 VRB04KT P6SM SKC
     FM101600 25005KT P6SM SKC=



000
FTUS44 KSHV 092340
TAFGGG
TAF
KGGG 092340Z 1000/1024 32012G18KT P6SM SKC
     FM100200 34004KT P6SM SKC
     FM100900 VRB03KT P6SM SKC
     FM101500 19008KT P6SM SKC=



000
FTUS44 KSHV 092340
TAFLFK
TAF
KLFK 092340Z 1000/1024 32012G18KT P6SM SKC
     FM100200 VRB03KT P6SM SKC
     FM101600 19007KT P6SM SKC=



000
FTUS44 KSHV 092340
TAFTYR
TAF
KTYR 092340Z 1000/1024 33012KT P6SM SKC
     FM100100 34004KT P6SM SKC
     FM100900 VRB03KT P6SM SKC
     FM101500 19010KT P6SM SKC=



000
FTUS44 KSHV 091741
TAFGGG
TAF
KGGG 091741Z 0918/1018 30014G25KT P6SM SKC
     FM100000 30008KT P6SM SKC
     FM100300 34004KT P6SM SKC
     FM100800 VRB03KT P6SM SKC
     FM101500 15007KT P6SM SKC=



000
FTUS44 KSHV 091741
TAFMLU
TAF
KMLU 091741Z 0918/1018 31016G28KT P6SM SKC
     FM100000 31010KT P6SM SKC
     FM100600 32003KT P6SM SKC
     FM101600 32007KT P6SM SKC=



000
FTUS44 KSHV 091741
TAFTYR
TAF
KTYR 091741Z 0918/1018 30014G25KT P6SM SKC
     FM100000 30008KT P6SM SKC
     FM100300 34004KT P6SM SKC
     FM100800 VRB03KT P6SM SKC
     FM101500 15007KT P6SM SKC=



000
FTUS44 KSHV 091741
TAFTXK
TAF
KTXK 091741Z 0918/1018 31016G25KT P6SM FEW090
     FM092300 30010KT P6SM SKC
     FM100200 VRB04KT P6SM SKC
     FM101600 20007KT P6SM SKC=



000
FTUS44 KSHV 091741
TAFLFK
TAF
KLFK 091741Z 0918/1018 31010G20KT P6SM SKC
     FM092300 32006KT P6SM SKC
     FM100200 VRB03KT P6SM SKC
     FM101600 16005KT P6SM SKC=



000
FTUS44 KSHV 091741
TAFSHV
TAF
KSHV 091741Z 0918/1018 31016G26KT P6SM SKC
     FM100000 32010KT P6SM SKC
     FM100300 33005KT P6SM SKC
     FM101600 19007KT P6SM SKC=



000
FTUS44 KSHV 091741
TAFELD
TAF
KELD 091741Z 0918/1018 30016G30KT P6SM FEW090
     FM100000 30008KT P6SM SKC
     FM100200 VRB04KT P6SM SKC
     FM101600 25005KT P6SM SKC=



000
FTUS44 KSHV 091741
TAFGGG
TAF
KGGG 091741Z 0918/1018 30014G25KT P6SM SKC
     FM100000 30008KT P6SM SKC
     FM100300 34004KT P6SM SKC
     FM100800 VRB03KT P6SM SKC
     FM101500 15007KT P6SM SKC=



000
FTUS44 KSHV 091741
TAFMLU
TAF
KMLU 091741Z 0918/1018 31016G28KT P6SM SKC
     FM100000 31010KT P6SM SKC
     FM100600 32003KT P6SM SKC
     FM101600 32007KT P6SM SKC=



000
FTUS44 KSHV 091741
TAFTYR
TAF
KTYR 091741Z 0918/1018 30014G25KT P6SM SKC
     FM100000 30008KT P6SM SKC
     FM100300 34004KT P6SM SKC
     FM100800 VRB03KT P6SM SKC
     FM101500 15007KT P6SM SKC=



000
FTUS44 KSHV 091741
TAFLFK
TAF
KLFK 091741Z 0918/1018 31010G20KT P6SM SKC
     FM092300 32006KT P6SM SKC
     FM100200 VRB03KT P6SM SKC
     FM101600 16005KT P6SM SKC=



000
FTUS44 KSHV 091741
TAFTXK
TAF
KTXK 091741Z 0918/1018 31016G25KT P6SM FEW090
     FM092300 30010KT P6SM SKC
     FM100200 VRB04KT P6SM SKC
     FM101600 20007KT P6SM SKC=



000
FTUS44 KSHV 091741
TAFELD
TAF
KELD 091741Z 0918/1018 30016G30KT P6SM FEW090
     FM100000 30008KT P6SM SKC
     FM100200 VRB04KT P6SM SKC
     FM101600 25005KT P6SM SKC=



000
FTUS44 KSHV 091741
TAFSHV
TAF
KSHV 091741Z 0918/1018 31016G26KT P6SM SKC
     FM100000 32010KT P6SM SKC
     FM100300 33005KT P6SM SKC
     FM101600 19007KT P6SM SKC=



000
FTUS44 KSHV 091120
TAFMLU
TAF
KMLU 091120Z 0912/1012 27007KT P6SM SKC
     FM091500 31018G30KT P6SM SKC
     FM100000 31010KT P6SM SKC
     FM100600 32003KT P6SM SKC=



000
FTUS44 KSHV 091120
TAFELD
TAF
KELD 091120Z 0912/1012 23004KT P6SM SKC
     FM091500 30016G30KT P6SM SKC
     FM100000 30008KT P6SM SKC
     FM100200 30004KT P6SM SKC=



000
FTUS44 KSHV 091120
TAFLFK
TAF
KLFK 091120Z 0912/1012 31004KT P6SM SKC
     FM091600 31010G20KT P6SM SKC
     FM092200 32006KT P6SM SKC
     FM100200 35003KT P6SM SKC=



000
FTUS44 KSHV 091120
TAFSHV
TAF
KSHV 091120Z 0912/1012 30011KT P6SM SKC
     FM091500 31016G26KT P6SM SKC
     FM100000 32010KT P6SM SKC
     FM100400 33004KT P6SM SKC=



000
FTUS44 KSHV 091120
TAFTYR
TAF
KTYR 091120Z 0912/1012 27007KT P6SM SKC
     FM091500 32014G24KT P6SM SKC
     FM092300 32008KT P6SM SKC
     FM100000 30003KT P6SM SKC=



000
FTUS44 KSHV 091120
TAFGGG
TAF
KGGG 091120Z 0912/1012 29007KT P6SM SKC
     FM091500 31017G25KT P6SM SKC
     FM092200 32008KT P6SM SKC
     FM100000 31004KT P6SM SKC=



000
FTUS44 KSHV 091120
TAFLFK
TAF
KLFK 091120Z 0912/1012 31004KT P6SM SKC
     FM091600 31010G20KT P6SM SKC
     FM092200 32006KT P6SM SKC
     FM100200 35003KT P6SM SKC=



000
FTUS44 KSHV 091120
TAFGGG
TAF
KGGG 091120Z 0912/1012 29007KT P6SM SKC
     FM091500 31017G25KT P6SM SKC
     FM092200 32008KT P6SM SKC
     FM100000 31004KT P6SM SKC=



000
FTUS44 KSHV 091120
TAFELD
TAF
KELD 091120Z 0912/1012 23004KT P6SM SKC
     FM091500 30016G30KT P6SM SKC
     FM100000 30008KT P6SM SKC
     FM100200 30004KT P6SM SKC=



000
FTUS44 KSHV 091120
TAFTXK
TAF
KTXK 091120Z 0912/1012 27008KT P6SM SKC
     FM091400 31015G25KT P6SM SKC
     FM092200 30010KT P6SM SKC
     FM100000 31003KT P6SM SKC=



000
FTUS44 KSHV 090533
TAFMLU
TAF
KMLU 090533Z 0906/1006 29008KT P6SM SCT250
     FM091500 31018G30KT P6SM SKC
     FM100000 31010KT P6SM SKC=



000
FTUS44 KSHV 090533
TAFELD
TAF
KELD 090533Z 0906/1006 28008KT P6SM SCT250
     FM091500 30016G30KT P6SM SKC
     FM100000 30008KT P6SM SKC=



000
FTUS44 KSHV 090533
TAFSHV
TAF
KSHV 090533Z 0906/1006 29008KT P6SM SKC
     FM091500 31016G26KT P6SM SKC
     FM100000 32010KT P6SM SKC=



000
FTUS44 KSHV 090533
TAFLFK
TAF
KLFK 090533Z 0906/1006 28006KT P6SM SKC
     FM091600 31010G20KT P6SM SKC
     FM100000 32006KT P6SM SKC=



000
FTUS44 KSHV 090533
TAFGGG
TAF
KGGG 090533Z 0906/1006 31008KT P6SM SKC
     FM091500 31015G25KT P6SM SKC
     FM100000 32008KT P6SM SKC=



000
FTUS44 KSHV 090533
TAFTXK
TAF
KTXK 090533Z 0906/1006 31010KT P6SM FEW250
     FM091500 31015G25KT P6SM SKC
     FM100000 30010KT P6SM SKC=



000
FTUS44 KSHV 090533
TAFTYR
TAF
KTYR 090533Z 0906/1006 32007KT P6SM SKC
     FM091500 32014G24KT P6SM SKC
     FM100000 32008KT P6SM SKC=



000
FTUS44 KSHV 082323
TAFTYR
TAF
KTYR 082323Z 0900/0924 30012KT P6SM SKC
      TEMPO 0900/0902 31014G24KT
     FM091500 31014G24KT P6SM SKC=



000
FTUS44 KSHV 082323
TAFLFK
TAF
KLFK 082323Z 0900/0924 29008KT P6SM SKC
      TEMPO 0900/0902 30012G18KT
     FM091600 31010G20KT P6SM SKC=



000
FTUS44 KSHV 082323
TAFGGG
TAF
KGGG 082323Z 0900/0924 30012KT P6SM SKC
      TEMPO 0900/0902 31014G24KT
     FM091500 31014G24KT P6SM SKC=



000
FTUS44 KSHV 082323
TAFMLU
TAF
KMLU 082323Z 0900/0924 30012KT P6SM SKC
      TEMPO 0900/0902 32014G24KT P6SM SCT100
     FM091500 31020G32KT P6SM SKC=



000
FTUS44 KSHV 082323
TAFELD
TAF
KELD 082323Z 0900/0924 30010KT P6SM SKC
      TEMPO 0900/0902 31014G24KT SCT100
     FM091500 30016G30KT P6SM SKC=



000
FTUS44 KSHV 082323
TAFTXK
TAF
KTXK 082323Z 0900/0924 30010KT P6SM SKC
      TEMPO 0900/0902 31014G24KT
     FM091500 31014G24KT P6SM SKC=



000
FTUS44 KSHV 082323
TAFSHV
TAF
KSHV 082323Z 0900/0924 31012KT P6SM SKC
      TEMPO 0900/0902 30014G24KT
     FM091500 31014G24KT P6SM SKC=



000
FTUS44 KSHV 081740
TAFSHV
TAF
KSHV 081740Z 0818/0918 31021G33KT P6SM FEW060
     FM082100 31023G31KT P6SM SCT060
     FM090000 29012KT P6SM SKC
     FM090300 29007KT P6SM SKC
     FM091500 31015G21KT P6SM SKC=



000
FTUS44 KSHV 081740
TAFTXK
TAF
KTXK 081740Z 0818/0918 31020G33KT P6SM FEW060
     FM090000 30012KT P6SM SKC
     FM090300 28008KT P6SM SKC
     FM091400 30014G19KT P6SM SKC=



000
FTUS44 KSHV 081740
TAFLFK
TAF
KLFK 081740Z 0818/0918 32014G25KT P6SM SKC
     FM082100 29017G26KT P6SM SKC
     FM090000 31008KT P6SM SKC
     FM090300 VRB03KT P6SM SKC
     FM091600 31007G14KT P6SM SKC=



000
FTUS44 KSHV 081740
TAFELD
TAF
KELD 081740Z 0818/0918 30017G30KT P6SM SCT060
     FM081900 29020G30KT P6SM BKN060
     FM090000 28012KT P6SM SCT250
     FM090400 27006KT P6SM SCT250
     FM091400 29010G17KT P6SM SKC=



000
FTUS44 KSHV 081740
TAFGGG
TAF
KGGG 081740Z 0818/0918 31018G30KT P6SM SKC
     FM090000 30010KT P6SM SKC
     FM090300 29008KT P6SM SKC
     FM091500 32012G19KT P6SM SKC=



000
FTUS44 KSHV 081740
TAFMLU
TAF
KMLU 081740Z 0818/0918 30019G30KT P6SM SCT050
     FM082100 30022G31KT P6SM BKN060
     FM090100 28010KT P6SM SCT060 SCT250
     FM091000 29011G18KT P6SM SKC
     FM091500 31018G25KT P6SM SKC=



000
FTUS44 KSHV 081740
TAFTYR
TAF
KTYR 081740Z 0818/0918 30018G30KT P6SM SKC
     FM090000 30010KT P6SM SKC
     FM090300 29006KT P6SM SKC
     FM091600 32012G19KT P6SM SKC=



000
FTUS44 KSHV 081634 AAA
TAFELD
TAF AMD
KELD 081634Z 0817/0912 30017G30KT P6SM FEW050
     FM081900 29020G30KT P6SM SCT050 SCT250
     FM090000 28012KT P6SM SCT250
     FM090400 27006KT P6SM SCT250=



000
FTUS44 KSHV 081631 AAA
TAFGGG
TAF AMD
KGGG 081631Z 0817/0912 31020G29KT P6SM SKC
     FM082000 31022G31KT P6SM SKC
     FM090000 31012KT P6SM SKC
     FM090300 26006KT P6SM SKC=



000
FTUS44 KSHV 081628 AAA
TAFLFK
TAF AMD
KLFK 081628Z 0816/0912 32014G25KT P6SM SKC
     FM090000 31008KT P6SM SKC
     FM090300 VRB03KT P6SM SKC=



000
FTUS44 KSHV 081626 AAA
TAFTYR
TAF AMD
KTYR 081626Z 0816/0912 30018G30KT P6SM SKC
     FM090000 30009KT P6SM SKC
     FM090300 29006KT P6SM SKC=



000
FTUS44 KSHV 081626 AAA
TAFTYR
TAF AMD
KTYR 081626Z 0816/0912 30018G30KT P6SM SKC
     FM090000 30009KT P6SM SKC
     FM090300 29006KT P6SM SKC=



000
FTUS44 KSHV 081625 AAB
TAFTXK
TAF AMD
KTXK 081625Z 0816/0912 31020G33KT P6SM FEW050
     FM090000 30012KT P6SM SKC
     FM090300 28006KT P6SM SKC=



000
FTUS44 KSHV 081624 AAA
TAFMLU
TAF AMD
KMLU 081624Z 0816/0912 30017G33KT P6SM FEW050
     FM090100 28010KT P6SM SKC=



000
FTUS44 KSHV 081624 AAA
TAFMLU
TAF AMD
KMLU 081624Z 0816/0912 30017G33KT P6SM FEW050
     FM090100 28010KT P6SM SKC=



000
FTUS44 KSHV 081622 AAB
TAFSHV
TAF AMD
KSHV 081622Z 0816/0912 31021G33KT P6SM FEW050
     FM090000 29012KT P6SM SKC
     FM090300 29007KT P6SM SKC=



000
FTUS44 KSHV 081309 AAA
TAFTXK
TAF AMD
KTXK 081309Z 0813/0912 30017G23KT P6SM SKC
     FM081700 30020G30KT P6SM SKC
     FM090000 30012KT P6SM SKC
     FM090300 28006KT P6SM SKC=



000
FTUS44 KSHV 081308 AAA
TAFSHV
TAF AMD
KSHV 081308Z 0813/0912 29009KT P6SM FEW120
     FM081500 30019G26KT P6SM SKC
     FM090000 29012KT P6SM SKC
     FM090300 29007KT P6SM SKC=



000
FTUS44 KSHV 081120
TAFELD
TAF
KELD 081120Z 0812/0912 29008KT P6SM SKC
     FM081500 30012G18KT P6SM SKC
     FM081700 30017G25KT P6SM SKC
     FM090000 28009KT P6SM SCT250
     FM090400 27006KT P6SM SCT250=



000
FTUS44 KSHV 081120
TAFTXK
TAF
KTXK 081120Z 0812/0912 30009KT P6SM SKC
     FM081500 30018G26KT P6SM SKC
     FM081700 30020G30KT P6SM SKC
     FM090000 30012KT P6SM SKC
     FM090300 28006KT P6SM SKC=



000
FTUS44 KSHV 081120
TAFMLU
TAF
KMLU 081120Z 0812/0912 30010KT P6SM SKC
     FM081500 30016G23KT P6SM SKC
     FM081700 30019G28KT P6SM SKC
     FM090000 28008KT P6SM SKC=



000
FTUS44 KSHV 081120
TAFGGG
TAF
KGGG 081120Z 0812/0912 30012KT P6SM SKC
     FM081500 31014G22KT P6SM SKC
     FM081700 30020G30KT P6SM SKC
     FM090000 31012KT P6SM SKC
     FM090300 26006KT P6SM SKC=



000
FTUS44 KSHV 081120
TAFLFK
TAF
KLFK 081120Z 0812/0912 31004KT P6SM SKC
     FM081500 32012G18KT P6SM SKC
     FM081700 32017G25KT P6SM SKC
     FM090000 31008KT P6SM SKC
     FM090300 VRB03KT P6SM SKC=



000
FTUS44 KSHV 081120
TAFMLU
TAF
KMLU 081120Z 0812/0912 30010KT P6SM SKC
     FM081500 30016G23KT P6SM SKC
     FM081700 30019G28KT P6SM SKC
     FM090000 28008KT P6SM SKC=



000
FTUS44 KSHV 081120
TAFTYR
TAF
KTYR 081120Z 0812/0912 32010KT P6SM SKC
     FM081500 30014G22KT P6SM SKC
     FM081700 32018G28KT P6SM SKC
     FM090000 30009KT P6SM SKC
     FM090300 29006KT P6SM SKC=



000
FTUS44 KSHV 081120
TAFSHV
TAF
KSHV 081120Z 0812/0912 31011G23KT P6SM SCT120
     FM081500 30019G26KT P6SM SKC
     FM090000 29012KT P6SM SKC
     FM090300 29007KT P6SM SKC=



000
FTUS44 KSHV 081120
TAFLFK
TAF
KLFK 081120Z 0812/0912 31004KT P6SM SKC
     FM081500 32012G18KT P6SM SKC
     FM081700 32017G25KT P6SM SKC
     FM090000 31008KT P6SM SKC
     FM090300 VRB03KT P6SM SKC=



000
FTUS44 KSHV 081120
TAFGGG
TAF
KGGG 081120Z 0812/0912 30012KT P6SM SKC
     FM081500 31014G22KT P6SM SKC
     FM081700 30020G30KT P6SM SKC
     FM090000 31012KT P6SM SKC
     FM090300 26006KT P6SM SKC=



000
FTUS44 KSHV 081120
TAFTYR
TAF
KTYR 081120Z 0812/0912 32010KT P6SM SKC
     FM081500 30014G22KT P6SM SKC
     FM081700 32018G28KT P6SM SKC
     FM090000 30009KT P6SM SKC
     FM090300 29006KT P6SM SKC=



000
FTUS44 KSHV 081120
TAFSHV
TAF
KSHV 081120Z 0812/0912 31011G23KT P6SM SCT120
     FM081500 30019G26KT P6SM SKC
     FM090000 29012KT P6SM SKC
     FM090300 29007KT P6SM SKC=



000
FTUS44 KSHV 081120
TAFELD
TAF
KELD 081120Z 0812/0912 29008KT P6SM SKC
     FM081500 30012G18KT P6SM SKC
     FM081700 30017G25KT P6SM SKC
     FM090000 28009KT P6SM SCT250
     FM090400 27006KT P6SM SCT250=



000
FTUS44 KSHV 081120
TAFTXK
TAF
KTXK 081120Z 0812/0912 30009KT P6SM SKC
     FM081500 30018G26KT P6SM SKC
     FM081700 30020G30KT P6SM SKC
     FM090000 30012KT P6SM SKC
     FM090300 28006KT P6SM SKC=



000
FTUS44 KSHV 080815 AAA
TAFTXK
TAF AMD
KTXK 080815Z 0808/0906 31016G25KT P6SM SCT110
     FM081500 30018G26KT P6SM SKC
     FM081700 30020G30KT P6SM FEW050
     FM090000 30012KT P6SM SCT250=



000
FTUS44 KSHV 080527
TAFTYR
TAF
KTYR 080527Z 0806/0906 31010KT P6SM FEW250
     FM081500 30014G22KT P6SM SKC
     FM081700 30018G28KT P6SM SKC
     FM090000 30012KT P6SM SKC=



000
FTUS44 KSHV 080527
TAFGGG
TAF
KGGG 080527Z 0806/0906 30010KT P6SM FEW250
     FM081500 31014G22KT P6SM SKC
     FM081700 30018G28KT P6SM SKC
     FM090000 31012KT P6SM SKC=



000
FTUS44 KSHV 080527
TAFMLU
TAF
KMLU 080527Z 0806/0906 26006KT P6SM FEW250
     FM081200 30010KT P6SM SKC
     FM081500 30012G20KT P6SM SKC
     FM081700 30016G26KT P6SM SCT050
     FM090000 30012KT P6SM SKC=



000
FTUS44 KSHV 080527
TAFELD
TAF
KELD 080527Z 0806/0906 27007KT P6SM SCT150
     FM080800 31010KT P6SM SCT150
     FM081500 30012G18KT P6SM SKC
     FM081700 30015G25KT P6SM SCT050
     FM090000 30010KT P6SM SCT250=



000
FTUS44 KSHV 080527
TAFLFK
TAF
KLFK 080527Z 0806/0906 VRB05KT P6SM FEW250
     FM080800 32007KT P6SM SKC
     FM081500 32012G18KT P6SM SKC
     FM081700 32015G25KT P6SM SKC
     FM090000 31008KT P6SM SKC=



000
FTUS44 KSHV 080527
TAFTXK
TAF
KTXK 080527Z 0806/0906 30010KT P6SM SCT150
     FM081500 30014G22KT P6SM SKC
     FM081700 30017G27KT P6SM FEW050
     FM090000 30012KT P6SM SCT250=



000
FTUS44 KSHV 080527
TAFSHV
TAF
KSHV 080527Z 0806/0906 28008KT P6SM FEW250
     FM080900 31010KT P6SM FEW250
     FM081500 30013G22KT P6SM SKC
     FM081700 30017G26KT P6SM FEW050
     FM090000 29012KT P6SM SKC=



000
FTUS44 KSHV 072337
TAFLFK
TAF
KLFK 072337Z 0800/0824 VRB05KT P6SM FEW250
     FM080800 32007KT P6SM SKC
     FM081500 32012G18KT P6SM SKC
     FM081700 32015G25KT P6SM SKC=



000
FTUS44 KSHV 072337
TAFMLU
TAF
KMLU 072337Z 0800/0824 24006KT P6SM FEW250
     FM080900 29010KT P6SM SKC
     FM081500 30012G20KT P6SM SKC
     FM081700 30015G25KT P6SM FEW050=



000
FTUS44 KSHV 072337
TAFTXK
TAF
KTXK 072337Z 0800/0824 28007KT P6SM SCT150
     FM080800 30011KT P6SM SCT150
     FM081500 31013G22KT P6SM SKC
     FM081700 30016G26KT P6SM SCT050=



000
FTUS44 KSHV 072337
TAFTYR
TAF
KTYR 072337Z 0800/0824 26007KT P6SM FEW250
     FM080600 30010KT P6SM SKC
     FM081500 31014G22KT P6SM SKC
     FM081700 30018G28KT P6SM SKC=



000
FTUS44 KSHV 072337
TAFGGG
TAF
KGGG 072337Z 0800/0824 25007KT P6SM FEW250
     FM080600 30010KT P6SM SKC
     FM081500 31014G22KT P6SM SKC
     FM081700 30018G28KT P6SM SKC=



000
FTUS44 KSHV 072337
TAFELD
TAF
KELD 072337Z 0800/0824 24006KT P6SM SCT150
     FM080700 28007KT P6SM SCT150
     FM081500 30012G18KT P6SM SKC
     FM081700 30015G25KT P6SM FEW050=



000
FTUS44 KSHV 072337
TAFSHV
TAF
KSHV 072337Z 0800/0824 25006KT P6SM FEW250
     FM080800 30011KT P6SM SKC
     FM081500 31013G22KT P6SM SKC
     FM081700 30016G26KT P6SM FEW050=



000
FTUS44 KSHV 072337
TAFSHV
TAF
KSHV 072337Z 0800/0824 25006KT P6SM FEW250
     FM080800 30011KT P6SM SKC
     FM081500 31013G22KT P6SM SKC
     FM081700 30016G26KT P6SM FEW050=



000
FTUS44 KSHV 072337
TAFGGG
TAF
KGGG 072337Z 0800/0824 25007KT P6SM FEW250
     FM080600 30010KT P6SM SKC
     FM081500 31014G22KT P6SM SKC
     FM081700 30018G28KT P6SM SKC=



000
FTUS44 KSHV 072337
TAFMLU
TAF
KMLU 072337Z 0800/0824 24006KT P6SM FEW250
     FM080900 29010KT P6SM SKC
     FM081500 30012G20KT P6SM SKC
     FM081700 30015G25KT P6SM FEW050=



000
FTUS44 KSHV 072337
TAFTXK
TAF
KTXK 072337Z 0800/0824 28007KT P6SM SCT150
     FM080800 30011KT P6SM SCT150
     FM081500 31013G22KT P6SM SKC
     FM081700 30016G26KT P6SM SCT050=



000
FTUS44 KSHV 072337
TAFELD
TAF
KELD 072337Z 0800/0824 24006KT P6SM SCT150
     FM080700 28007KT P6SM SCT150
     FM081500 30012G18KT P6SM SKC
     FM081700 30015G25KT P6SM FEW050=



000
FTUS44 KSHV 072337
TAFLFK
TAF
KLFK 072337Z 0800/0824 VRB05KT P6SM FEW250
     FM080800 32007KT P6SM SKC
     FM081500 32012G18KT P6SM SKC
     FM081700 32015G25KT P6SM SKC=



000
FTUS44 KSHV 072337
TAFTYR
TAF
KTYR 072337Z 0800/0824 26007KT P6SM FEW250
     FM080600 30010KT P6SM SKC
     FM081500 31014G22KT P6SM SKC
     FM081700 30018G28KT P6SM SKC=



    US Dept of Commerce
    National Oceanic and Atmospheric Administration
    National Weather Service
    1325 East West Highway
    Silver Spring, MD 20910
    Page Author: NWS Internet Services Team
Disclaimer
Information Quality
Credits
Glossary
Privacy Policy
Freedom of Information Act (FOIA)
About Us
Career Opportunities